createdAt,value
2017-03-28T00:00:51.711Z,0
2017-03-28T00:01:52.044Z,0
2017-03-28T00:02:52.083Z,0
2017-03-28T00:03:52.429Z,0
2017-03-28T00:04:52.167Z,0
2017-03-28T00:05:51.886Z,0
2017-03-28T00:06:51.920Z,0
2017-03-28T00:07:52.264Z,0
2017-03-28T00:08:52.298Z,0
2017-03-28T00:09:52.342Z,0
2017-03-28T00:10:51.759Z,0
2017-03-28T00:11:52.103Z,0
2017-03-28T00:12:53.055Z,0
2017-03-28T00:13:52.178Z,0
2017-03-28T00:14:51.904Z,0
2017-03-28T00:15:51.944Z,0
2017-03-28T00:16:51.982Z,0
2017-03-28T00:17:52.318Z,0
2017-03-28T00:18:52.351Z,0
2017-03-28T00:19:52.687Z,0
2017-03-28T00:20:52.107Z,0
2017-03-28T00:21:52.147Z,0
2017-03-28T00:22:52.497Z,0
2017-03-28T00:23:52.268Z,0
2017-03-28T00:24:52.253Z,0
2017-03-28T00:25:52.626Z,0
2017-03-28T00:26:52.548Z,0
2017-03-28T00:27:52.975Z,0
2017-03-28T00:28:53.001Z,0
2017-03-28T00:29:52.733Z,0
2017-03-28T00:30:52.462Z,0
2017-03-28T00:31:53.106Z,0
2017-03-28T00:32:52.853Z,0
2017-03-28T00:33:52.900Z,0
2017-03-28T00:34:53.213Z,0
2017-03-28T00:35:52.948Z,0
2017-03-28T00:36:52.684Z,0
2017-03-28T00:37:52.722Z,0
2017-03-28T00:38:53.356Z,0
2017-03-28T00:39:53.089Z,0
2017-03-28T00:40:53.114Z,0
2017-03-28T00:41:52.854Z,0
2017-03-28T00:42:53.804Z,0
2017-03-28T00:43:53.850Z,0
2017-03-28T00:44:53.267Z,0
2017-03-28T00:45:52.990Z,0
2017-03-28T00:46:53.329Z,0
2017-03-28T00:47:53.683Z,0
2017-03-28T00:48:53.711Z,0
2017-03-28T00:49:53.139Z,0
2017-03-28T00:50:53.470Z,0
2017-03-28T00:51:53.501Z,0
2017-03-28T00:52:54.155Z,0
2017-03-28T00:53:54.194Z,0
2017-03-28T00:54:53.916Z,0
2017-03-28T00:55:53.645Z,0
2017-03-28T00:56:53.985Z,0
2017-03-28T00:57:54.323Z,0
2017-03-28T00:58:53.760Z,0
2017-03-28T00:59:54.397Z,0
2017-03-28T01:00:54.129Z,0
2017-03-28T01:01:54.174Z,0
2017-03-28T01:02:54.203Z,0
2017-03-28T01:03:54.235Z,0
2017-03-28T01:04:54.569Z,0
2017-03-28T01:05:54.301Z,0
2017-03-28T01:06:54.040Z,0
2017-03-28T01:07:54.066Z,0
2017-03-28T01:08:54.415Z,0
2017-03-28T01:09:54.441Z,0
2017-03-28T01:10:54.180Z,0
2017-03-28T01:11:54.206Z,0
2017-03-28T01:12:54.547Z,0
2017-03-28T01:13:54.318Z,0
2017-03-28T01:14:54.623Z,0
2017-03-28T01:15:54.051Z,0
2017-03-28T01:16:54.085Z,0
2017-03-28T01:17:55.050Z,0
2017-03-28T01:18:54.469Z,0
2017-03-28T01:19:54.799Z,0
2017-03-28T01:20:54.525Z,0
2017-03-28T01:21:54.265Z,0
2017-03-28T01:22:54.300Z,0
2017-03-28T01:23:54.933Z,0
2017-03-28T01:24:54.665Z,0
2017-03-28T01:25:55.008Z,0
2017-03-28T01:26:54.735Z,0
2017-03-28T01:27:55.685Z,0
2017-03-28T01:28:54.810Z,0
2017-03-28T01:29:55.154Z,0
2017-03-28T01:30:54.574Z,0
2017-03-28T01:31:54.608Z,0
2017-03-28T01:32:55.249Z,0
2017-03-28T01:33:54.990Z,0
2017-03-28T01:34:55.325Z,0
2017-03-28T01:35:54.743Z,0
2017-03-28T01:36:54.776Z,0
2017-03-28T01:37:55.432Z,0
2017-03-28T01:38:54.854Z,0
2017-03-28T01:39:55.490Z,0
2017-03-28T01:40:54.930Z,0
2017-03-28T01:41:54.956Z,0
2017-03-28T01:42:55.604Z,0
2017-03-28T01:43:55.937Z,0
2017-03-28T01:44:55.399Z,0
2017-03-28T01:45:55.097Z,0
2017-03-28T01:46:55.433Z,0
2017-03-28T01:47:55.775Z,0
2017-03-28T01:48:55.811Z,0
2017-03-28T01:49:56.148Z,0
2017-03-28T01:50:55.572Z,0
2017-03-28T01:51:55.611Z,0
2017-03-28T01:52:55.949Z,0
2017-03-28T01:53:55.983Z,0
2017-03-28T01:54:56.321Z,0
2017-03-28T01:55:55.749Z,0
2017-03-28T01:56:55.480Z,0
2017-03-28T01:57:56.729Z,0
2017-03-28T01:58:56.156Z,0
2017-03-28T01:59:56.495Z,0
2017-03-28T02:00:55.924Z,0
2017-03-28T02:01:56.260Z,0
2017-03-28T02:02:55.994Z,0
2017-03-28T02:03:56.684Z,0
2017-03-28T02:04:56.669Z,0
2017-03-28T02:05:56.403Z,0
2017-03-28T02:06:56.164Z,0
2017-03-28T02:07:57.081Z,0
2017-03-28T02:08:56.807Z,0
2017-03-28T02:09:56.841Z,0
2017-03-28T02:10:55.964Z,0
2017-03-28T02:11:56.005Z,0
2017-03-28T02:12:56.344Z,0
2017-03-28T02:13:56.679Z,0
2017-03-28T02:14:56.712Z,0
2017-03-28T02:15:56.473Z,0
2017-03-28T02:16:56.780Z,0
2017-03-28T02:17:56.816Z,0
2017-03-28T02:18:57.155Z,0
2017-03-28T02:19:56.594Z,0
2017-03-28T02:20:56.323Z,0
2017-03-28T02:21:56.355Z,0
2017-03-28T02:22:56.688Z,0
2017-03-28T02:23:57.034Z,0
2017-03-28T02:24:56.762Z,0
2017-03-28T02:25:56.483Z,0
2017-03-28T02:26:56.821Z,0
2017-03-28T02:27:57.173Z,0
2017-03-28T02:28:57.200Z,0
2017-03-28T02:29:57.543Z,0
2017-03-28T02:30:56.978Z,0
2017-03-28T02:31:57.315Z,0
2017-03-28T02:32:57.638Z,0
2017-03-28T02:33:56.772Z,0
2017-03-28T02:34:57.411Z,0
2017-03-28T02:35:57.740Z,0
2017-03-28T02:36:57.171Z,0
2017-03-28T02:37:57.519Z,0
2017-03-28T02:38:56.960Z,0
2017-03-28T02:39:57.876Z,0
2017-03-28T02:40:57.922Z,0
2017-03-28T02:41:57.049Z,0
2017-03-28T02:42:57.985Z,0
2017-03-28T02:43:58.069Z,0
2017-03-28T02:44:57.449Z,0
2017-03-28T02:45:57.481Z,0
2017-03-28T02:46:57.521Z,0
2017-03-28T02:47:57.551Z,0
2017-03-28T02:48:57.896Z,0
2017-03-28T02:49:57.935Z,0
2017-03-28T02:50:57.356Z,0
2017-03-28T02:51:57.993Z,0
2017-03-28T02:52:58.035Z,0
2017-03-28T02:53:58.076Z,0
2017-03-28T02:54:58.100Z,0
2017-03-28T02:55:57.828Z,0
2017-03-28T02:56:57.567Z,0
2017-03-28T02:57:57.904Z,0
2017-03-28T02:58:58.237Z,0
2017-03-28T02:59:57.960Z,0
2017-03-28T03:00:58.301Z,0
2017-03-28T03:01:57.735Z,0
2017-03-28T03:02:58.385Z,0
2017-03-28T03:03:57.810Z,0
2017-03-28T03:04:57.836Z,0
2017-03-28T03:05:58.173Z,0
2017-03-28T03:06:58.534Z,0
2017-03-28T03:07:58.549Z,0
2017-03-28T03:08:58.884Z,0
2017-03-28T03:09:58.320Z,0
2017-03-28T03:10:58.649Z,0
2017-03-28T03:11:58.383Z,0
2017-03-28T03:12:58.721Z,0
2017-03-28T03:13:58.755Z,0
2017-03-28T03:14:59.098Z,0
2017-03-28T03:15:58.819Z,0
2017-03-28T03:16:58.858Z,0
2017-03-28T03:17:58.595Z,0
2017-03-28T03:18:59.225Z,0
2017-03-28T03:19:58.655Z,0
2017-03-28T03:20:58.385Z,0
2017-03-28T03:21:58.726Z,0
2017-03-28T03:22:59.367Z,0
2017-03-28T03:23:59.090Z,0
2017-03-28T03:24:59.127Z,0
2017-03-28T03:25:58.857Z,0
2017-03-28T03:26:58.586Z,0
2017-03-28T03:27:59.537Z,0
2017-03-28T03:28:59.570Z,0
2017-03-28T03:29:59.299Z,0
2017-03-28T03:30:59.026Z,0
2017-03-28T03:31:59.063Z,0
2017-03-28T03:32:59.408Z,0
2017-03-28T03:33:59.432Z,0
2017-03-28T03:34:59.470Z,0
2017-03-28T03:35:59.202Z,0
2017-03-28T03:36:59.544Z,0
2017-03-28T03:37:59.877Z,0
2017-03-28T03:38:59.310Z,0
2017-03-28T03:39:59.336Z,0
2017-03-28T03:40:59.375Z,0
2017-03-28T03:41:59.707Z,0
2017-03-28T03:42:59.751Z,0
2017-03-28T03:43:59.510Z,0
2017-03-28T03:44:59.513Z,0
2017-03-28T03:45:59.845Z,0
2017-03-28T03:46:59.881Z,0
2017-03-28T03:48:00.217Z,0
2017-03-28T03:48:59.650Z,0
2017-03-28T03:49:59.681Z,0
2017-03-28T03:50:59.712Z,0
2017-03-28T03:51:59.437Z,0
2017-03-28T03:52:59.782Z,0
2017-03-28T03:54:00.119Z,0
2017-03-28T03:55:00.453Z,0
2017-03-28T03:56:00.185Z,0
2017-03-28T03:56:59.911Z,0
2017-03-28T03:58:00.553Z,0
2017-03-28T03:58:59.982Z,0
2017-03-28T04:00:00.012Z,0
2017-03-28T04:01:00.356Z,0
2017-03-28T04:02:00.081Z,0
2017-03-28T04:03:00.125Z,0
2017-03-28T04:03:59.855Z,0
2017-03-28T04:05:00.197Z,0
2017-03-28T04:05:59.917Z,0
2017-03-28T04:07:00.256Z,0
2017-03-28T04:08:00.593Z,0
2017-03-28T04:09:00.636Z,0
2017-03-28T04:10:00.667Z,0
2017-03-28T04:11:00.087Z,0
2017-03-28T04:12:00.425Z,0
2017-03-28T04:13:00.464Z,0
2017-03-28T04:14:01.100Z,0
2017-03-28T04:15:01.128Z,0
2017-03-28T04:16:00.259Z,0
2017-03-28T04:17:00.294Z,0
2017-03-28T04:18:01.242Z,0
2017-03-28T04:19:00.979Z,0
2017-03-28T04:20:01.307Z,0
2017-03-28T04:21:01.048Z,0
2017-03-28T04:22:00.761Z,0
2017-03-28T04:23:01.109Z,0
2017-03-28T04:24:00.841Z,0
2017-03-28T04:25:01.720Z,0
2017-03-28T04:26:01.507Z,0
2017-03-28T04:27:01.228Z,0
2017-03-28T04:28:01.570Z,0
2017-03-28T04:29:01.609Z,0
2017-03-28T04:30:01.639Z,0
2017-03-28T04:31:01.369Z,0
2017-03-28T04:32:01.110Z,0
2017-03-28T04:33:01.749Z,0
2017-03-28T04:34:00.869Z,0
2017-03-28T04:35:01.513Z,0
2017-03-28T04:36:01.551Z,0
2017-03-28T04:37:01.284Z,0
2017-03-28T04:38:01.314Z,0
2017-03-28T04:39:02.629Z,0
2017-03-28T04:40:01.982Z,0
2017-03-28T04:41:01.099Z,0
2017-03-28T04:42:02.049Z,0
2017-03-28T04:43:01.485Z,0
2017-03-28T04:44:02.426Z,5
2017-03-28T04:45:01.847Z,5
2017-03-28T04:46:01.576Z,5
2017-03-28T04:47:01.615Z,5
2017-03-28T04:48:01.959Z,5
2017-03-28T04:49:01.381Z,5
2017-03-28T04:50:02.313Z,5
2017-03-28T04:51:01.747Z,5
2017-03-28T04:52:01.479Z,10
2017-03-28T04:53:02.127Z,10
2017-03-28T04:54:01.853Z,10
2017-03-28T04:55:02.183Z,10
2017-03-28T04:56:01.618Z,10
2017-03-28T04:57:02.271Z,15
2017-03-28T04:58:01.995Z,15
2017-03-28T04:59:02.329Z,15
2017-03-28T05:00:01.769Z,15
2017-03-28T05:01:02.084Z,15
2017-03-28T05:02:02.422Z,20
2017-03-28T05:03:02.491Z,20
2017-03-28T05:04:02.485Z,20
2017-03-28T05:05:02.526Z,20
2017-03-28T05:06:01.954Z,25
2017-03-28T05:07:02.890Z,25
2017-03-28T05:08:02.940Z,25
2017-03-28T05:09:02.368Z,25
2017-03-28T05:10:02.389Z,30
2017-03-28T05:11:02.423Z,30
2017-03-28T05:12:02.484Z,30
2017-03-28T05:13:03.093Z,30
2017-03-28T05:14:03.138Z,35
2017-03-28T05:15:02.874Z,35
2017-03-28T05:16:02.349Z,35
2017-03-28T05:17:02.931Z,35
2017-03-28T05:18:03.353Z,40
2017-03-28T05:19:02.462Z,40
2017-03-28T05:20:03.644Z,40
2017-03-28T05:21:02.768Z,40
2017-03-28T05:22:02.502Z,45
2017-03-28T05:23:02.831Z,45
2017-03-28T05:24:02.868Z,45
2017-03-28T05:25:03.201Z,45
2017-03-28T05:26:02.649Z,50
2017-03-28T05:27:02.975Z,50
2017-03-28T05:28:03.618Z,50
2017-03-28T05:29:03.643Z,50
2017-03-28T05:30:03.775Z,55
2017-03-28T05:31:03.407Z,55
2017-03-28T05:32:03.437Z,55
2017-03-28T05:33:04.100Z,55
2017-03-28T05:34:03.509Z,60
2017-03-28T05:35:03.547Z,60
2017-03-28T05:36:03.572Z,60
2017-03-28T05:37:07.741Z,60
2017-03-28T05:38:04.028Z,65
2017-03-28T05:39:03.989Z,65
2017-03-28T05:40:04.019Z,65
2017-03-28T05:41:03.141Z,65
2017-03-28T05:42:03.175Z,70
2017-03-28T05:43:03.824Z,70
2017-03-28T05:44:03.579Z,70
2017-03-28T05:45:03.593Z,70
2017-03-28T05:46:03.624Z,70
2017-03-28T05:47:03.656Z,75
2017-03-28T05:48:03.687Z,75
2017-03-28T05:49:03.721Z,75
2017-03-28T05:50:03.452Z,80
2017-03-28T05:51:04.098Z,80
2017-03-28T05:52:04.118Z,85
2017-03-28T05:53:04.171Z,85
2017-03-28T05:54:04.795Z,95
2017-03-28T05:55:04.223Z,100
2017-03-28T05:56:03.950Z,175
2017-03-28T05:57:04.000Z,345
2017-03-28T05:58:03.727Z,400
2017-03-28T05:59:04.057Z,415
2017-03-28T06:00:03.797Z,425
2017-03-28T06:01:03.822Z,435
2017-03-28T06:02:04.478Z,445
2017-03-28T06:03:04.206Z,450
2017-03-28T06:04:04.241Z,455
2017-03-28T06:05:04.278Z,465
2017-03-28T06:06:04.006Z,470
2017-03-28T06:07:04.354Z,485
2017-03-28T06:08:04.394Z,490
2017-03-28T06:09:04.730Z,495
2017-03-28T06:10:05.092Z,505
2017-03-28T06:11:04.800Z,525
2017-03-28T06:12:04.545Z,540
2017-03-28T06:13:04.615Z,545
2017-03-28T06:14:04.926Z,560
2017-03-28T06:15:04.362Z,575
2017-03-28T06:16:04.421Z,580
2017-03-28T06:17:04.739Z,575
2017-03-28T06:18:05.395Z,580
2017-03-28T06:19:05.128Z,580
2017-03-28T06:20:04.862Z,590
2017-03-28T06:21:04.602Z,585
2017-03-28T06:22:04.950Z,595
2017-03-28T06:23:05.312Z,610
2017-03-28T06:24:05.042Z,630
2017-03-28T06:25:05.379Z,625
2017-03-28T06:26:05.113Z,630
2017-03-28T06:27:05.424Z,645
2017-03-28T06:28:05.809Z,640
2017-03-28T06:29:05.241Z,645
2017-03-28T06:30:05.891Z,645
2017-03-28T06:31:05.323Z,640
2017-03-28T06:32:05.069Z,640
2017-03-28T06:33:05.419Z,650
2017-03-28T06:34:05.802Z,655
2017-03-28T06:35:06.426Z,670
2017-03-28T06:36:05.593Z,680
2017-03-28T06:37:05.296Z,700
2017-03-28T06:38:06.539Z,715
2017-03-28T06:39:05.691Z,720
2017-03-28T06:40:06.022Z,730
2017-03-28T06:41:05.772Z,740
2017-03-28T06:42:06.420Z,755
2017-03-28T06:43:06.302Z,760
2017-03-28T06:44:06.206Z,780
2017-03-28T06:45:05.956Z,800
2017-03-28T06:46:05.685Z,810
2017-03-28T06:47:05.743Z,820
2017-03-28T06:48:06.086Z,825
2017-03-28T06:49:06.427Z,830
2017-03-28T06:50:06.169Z,825
2017-03-28T06:51:05.912Z,830
2017-03-28T06:52:05.955Z,830
2017-03-28T06:53:06.003Z,830
2017-03-28T06:54:06.664Z,835
2017-03-28T06:55:06.401Z,830
2017-03-28T06:56:06.456Z,830
2017-03-28T06:57:06.494Z,830
2017-03-28T06:58:06.849Z,815
2017-03-28T06:59:06.587Z,810
2017-03-28T07:00:06.938Z,810
2017-03-28T07:01:06.417Z,810
2017-03-28T07:02:06.431Z,810
2017-03-28T07:03:06.772Z,830
2017-03-28T07:04:07.442Z,835
2017-03-28T07:05:06.876Z,850
2017-03-28T07:06:07.224Z,870
2017-03-28T07:07:07.270Z,895
2017-03-28T07:08:06.708Z,910
2017-03-28T07:09:06.758Z,930
2017-03-28T07:10:07.113Z,930
2017-03-28T07:11:07.159Z,925
2017-03-28T07:12:06.904Z,940
2017-03-28T07:13:07.569Z,945
2017-03-28T07:14:07.308Z,940
2017-03-28T07:15:07.354Z,945
2017-03-28T07:16:07.702Z,950
2017-03-28T07:17:07.449Z,965
2017-03-28T07:18:07.814Z,1000
2017-03-28T07:19:07.546Z,1005
2017-03-28T07:20:07.583Z,1020
2017-03-28T07:21:07.659Z,1020
2017-03-28T07:22:07.686Z,1030
2017-03-28T07:23:08.050Z,1035
2017-03-28T07:24:07.815Z,1035
2017-03-28T07:25:07.689Z,1035
2017-03-28T07:26:08.190Z,1045
2017-03-28T07:27:07.934Z,1040
2017-03-28T07:28:08.287Z,1060
2017-03-28T07:29:08.338Z,1070
2017-03-28T07:30:07.833Z,1090
2017-03-28T07:31:08.442Z,1110
2017-03-28T07:32:08.254Z,1115
2017-03-28T07:33:08.535Z,1150
2017-03-28T07:34:08.288Z,1160
2017-03-28T07:35:08.117Z,1185
2017-03-28T07:36:08.372Z,1215
2017-03-28T07:37:09.026Z,1215
2017-03-28T07:38:08.782Z,1235
2017-03-28T07:39:08.531Z,1250
2017-03-28T07:40:08.578Z,1250
2017-03-28T07:41:08.634Z,1245
2017-03-28T07:42:08.366Z,1235
2017-03-28T07:43:09.028Z,1225
2017-03-28T07:44:08.779Z,1220
2017-03-28T07:45:09.121Z,1225
2017-03-28T07:46:08.592Z,1230
2017-03-28T07:47:08.625Z,1250
2017-03-28T07:48:09.335Z,1260
2017-03-28T07:49:09.047Z,1275
2017-03-28T07:50:08.827Z,1300
2017-03-28T07:51:08.821Z,1315
2017-03-28T07:52:09.025Z,1320
2017-03-28T07:53:16.059Z,1335
2017-03-28T07:54:09.679Z,1345
2017-03-28T07:55:09.414Z,1345
2017-03-28T07:56:09.372Z,1360
2017-03-28T07:57:09.111Z,1380
2017-03-28T07:58:09.629Z,1420
2017-03-28T07:59:09.233Z,1450
2017-03-28T08:00:09.268Z,1475
2017-03-28T08:01:09.316Z,1500
2017-03-28T08:02:09.366Z,1545
2017-03-28T08:03:09.422Z,1570
2017-03-28T08:04:10.076Z,1590
2017-03-28T08:05:09.968Z,1585
2017-03-28T08:06:10.027Z,1585
2017-03-28T08:07:09.923Z,1615
2017-03-28T08:08:09.676Z,1630
2017-03-28T08:09:09.715Z,1645
2017-03-28T08:10:10.070Z,1645
2017-03-28T08:11:09.818Z,1670
2017-03-28T08:12:09.876Z,1695
2017-03-28T08:13:09.923Z,1720
2017-03-28T08:14:10.583Z,1725
2017-03-28T08:15:10.329Z,1730
2017-03-28T08:16:10.080Z,1715
2017-03-28T08:17:10.729Z,1705
2017-03-28T08:18:10.787Z,1700
2017-03-28T08:19:10.836Z,1685
2017-03-28T08:20:10.274Z,1690
2017-03-28T08:21:10.336Z,1705
2017-03-28T08:22:10.988Z,1710
2017-03-28T08:23:10.439Z,1700
2017-03-28T08:24:10.790Z,1695
2017-03-28T08:25:10.539Z,1665
2017-03-28T08:26:10.927Z,1630
2017-03-28T08:27:10.644Z,1595
2017-03-28T08:28:10.699Z,1580
2017-03-28T08:29:10.749Z,1575
2017-03-28T08:30:11.257Z,1600
2017-03-28T08:31:11.455Z,1640
2017-03-28T08:32:11.815Z,1675
2017-03-28T08:33:10.948Z,1710
2017-03-28T08:34:11.608Z,1720
2017-03-28T08:35:12.256Z,1715
2017-03-28T08:36:11.715Z,1755
2017-03-28T08:37:11.473Z,1690
2017-03-28T08:38:11.218Z,1680
2017-03-28T08:39:11.277Z,1675
2017-03-28T08:40:11.633Z,1680
2017-03-28T08:41:11.377Z,1700
2017-03-28T08:42:11.746Z,1715
2017-03-28T08:43:11.788Z,1715
2017-03-28T08:44:11.547Z,1705
2017-03-28T08:45:12.202Z,1705
2017-03-28T08:46:11.949Z,1695
2017-03-28T08:47:12.309Z,1685
2017-03-28T08:48:12.660Z,1690
2017-03-28T08:49:12.410Z,1695
2017-03-28T08:50:12.169Z,1725
2017-03-28T08:51:12.211Z,1745
2017-03-28T08:52:11.957Z,1755
2017-03-28T08:53:12.626Z,1760
2017-03-28T08:54:12.674Z,1765
2017-03-28T08:55:12.427Z,1785
2017-03-28T08:56:12.807Z,1800
2017-03-28T08:57:12.236Z,1815
2017-03-28T08:58:12.590Z,1850
2017-03-28T08:59:12.946Z,1850
2017-03-28T09:00:12.703Z,1850
2017-03-28T09:01:13.060Z,1855
2017-03-28T09:02:13.291Z,1865
2017-03-28T09:03:13.487Z,1820
2017-03-28T09:04:12.918Z,1805
2017-03-28T09:05:13.575Z,1790
2017-03-28T09:06:13.032Z,1810
2017-03-28T09:07:13.392Z,1830
2017-03-28T09:08:13.136Z,1850
2017-03-28T09:09:13.812Z,1875
2017-03-28T09:10:13.243Z,1865
2017-03-28T09:11:12.998Z,1840
2017-03-28T09:12:13.360Z,1845
2017-03-28T09:13:13.106Z,1875
2017-03-28T09:14:13.173Z,1885
2017-03-28T09:15:13.228Z,1890
2017-03-28T09:16:13.286Z,1870
2017-03-28T09:17:13.343Z,1880
2017-03-28T09:18:13.398Z,1900
2017-03-28T09:19:13.756Z,1905
2017-03-28T09:20:13.502Z,1910
2017-03-28T09:21:13.551Z,1900
2017-03-28T09:22:13.918Z,1880
2017-03-28T09:23:14.593Z,1880
2017-03-28T09:24:14.335Z,1860
2017-03-28T09:25:14.692Z,1805
2017-03-28T09:26:14.442Z,1815
2017-03-28T09:27:13.911Z,1710
2017-03-28T09:28:14.266Z,1815
2017-03-28T09:29:14.613Z,1820
2017-03-28T09:30:14.376Z,1820
2017-03-28T09:31:14.127Z,1805
2017-03-28T09:32:14.198Z,1775
2017-03-28T09:33:14.552Z,1745
2017-03-28T09:34:14.302Z,1715
2017-03-28T09:35:14.364Z,1695
2017-03-28T09:36:14.709Z,1680
2017-03-28T09:37:14.764Z,1665
2017-03-28T09:38:15.136Z,1665
2017-03-28T09:39:15.487Z,1665
2017-03-28T09:40:14.958Z,1675
2017-03-28T09:41:14.698Z,1715
2017-03-28T09:42:15.065Z,1750
2017-03-28T09:43:15.113Z,1770
2017-03-28T09:44:15.780Z,1775
2017-03-28T09:45:15.222Z,1805
2017-03-28T09:46:15.284Z,1810
2017-03-28T09:47:15.040Z,1805
2017-03-28T09:48:15.705Z,1805
2017-03-28T09:49:15.457Z,1795
2017-03-28T09:50:15.820Z,1815
2017-03-28T09:51:15.275Z,1820
2017-03-28T09:52:15.940Z,1810
2017-03-28T09:53:15.987Z,1810
2017-03-28T09:54:15.755Z,1785
2017-03-28T09:55:15.803Z,1770
2017-03-28T09:56:15.877Z,1745
2017-03-28T09:57:15.612Z,1715
2017-03-28T09:58:16.286Z,1700
2017-03-28T09:59:16.565Z,1715
2017-03-28T10:00:15.791Z,1725
2017-03-28T10:01:16.149Z,1735
2017-03-28T10:02:16.408Z,1745
2017-03-28T10:03:16.593Z,1755
2017-03-28T10:04:16.635Z,1715
2017-03-28T10:05:16.179Z,1690
2017-03-28T10:06:16.392Z,1685
2017-03-28T10:07:16.507Z,1690
2017-03-28T10:08:16.573Z,1700
2017-03-28T10:09:16.980Z,1720
2017-03-28T10:10:16.794Z,1760
2017-03-28T10:11:16.450Z,1775
2017-03-28T10:12:16.828Z,1790
2017-03-28T10:13:17.264Z,1780
2017-03-28T10:14:16.683Z,1765
2017-03-28T10:15:17.299Z,1760
2017-03-28T10:16:17.628Z,1760
2017-03-28T10:17:16.801Z,1775
2017-03-28T10:18:17.340Z,1805
2017-03-28T10:19:17.476Z,1845
2017-03-28T10:20:17.896Z,1855
2017-03-28T10:21:17.068Z,1875
2017-03-28T10:22:17.130Z,1930
2017-03-28T10:23:17.469Z,1945
2017-03-28T10:24:17.478Z,1940
2017-03-28T10:25:17.403Z,1940
2017-03-28T10:26:17.593Z,1950
2017-03-28T10:27:18.081Z,1955
2017-03-28T10:28:17.539Z,1965
2017-03-28T10:29:17.527Z,1935
2017-03-28T10:30:18.200Z,1930
2017-03-28T10:31:17.925Z,1930
2017-03-28T10:32:18.197Z,1945
2017-03-28T10:33:18.413Z,1915
2017-03-28T10:34:18.224Z,1855
2017-03-28T10:35:18.773Z,1750
2017-03-28T10:36:18.288Z,1645
2017-03-28T10:37:18.070Z,1530
2017-03-28T10:38:18.789Z,1415
2017-03-28T10:39:18.757Z,1320
2017-03-28T10:40:18.518Z,1275
2017-03-28T10:41:18.223Z,1270
2017-03-28T10:42:18.580Z,1345
2017-03-28T10:43:18.941Z,1470
2017-03-28T10:44:19.064Z,1615
2017-03-28T10:45:18.823Z,1755
2017-03-28T10:46:18.519Z,1875
2017-03-28T10:47:19.031Z,1970
2017-03-28T10:48:19.274Z,2030
2017-03-28T10:49:18.709Z,2045
2017-03-28T10:50:19.077Z,2060
2017-03-28T10:51:19.120Z,2030
2017-03-28T10:52:19.814Z,2000
2017-03-28T10:53:19.544Z,1965
2017-03-28T10:54:19.303Z,1940
2017-03-28T10:55:19.411Z,1925
2017-03-28T10:56:19.770Z,1925
2017-03-28T10:57:19.168Z,1935
2017-03-28T10:58:19.841Z,1980
2017-03-28T10:59:19.980Z,2010
2017-03-28T11:00:19.359Z,2040
2017-03-28T11:01:19.713Z,2030
2017-03-28T11:02:19.761Z,2025
2017-03-28T11:03:20.262Z,1970
2017-03-28T11:04:20.319Z,1945
2017-03-28T11:05:20.012Z,1900
2017-03-28T11:06:20.010Z,1870
2017-03-28T11:07:20.358Z,1855
2017-03-28T11:08:21.019Z,1855
2017-03-28T11:09:19.888Z,1870
2017-03-28T11:10:20.244Z,1885
2017-03-28T11:11:20.317Z,1895
2017-03-28T11:12:20.342Z,1905
2017-03-28T11:13:20.722Z,1910
2017-03-28T11:14:20.767Z,1920
2017-03-28T11:15:20.526Z,1800
2017-03-28T11:16:20.878Z,940
2017-03-28T11:17:21.315Z,300
2017-03-28T11:18:20.392Z,255
2017-03-28T11:19:20.749Z,240
2017-03-28T11:20:20.808Z,235
2017-03-28T11:21:21.458Z,235
2017-03-28T11:22:21.218Z,220
2017-03-28T11:23:20.667Z,215
2017-03-28T11:24:21.031Z,210
2017-03-28T11:25:21.083Z,205
2017-03-28T11:26:20.827Z,200
2017-03-28T11:27:20.874Z,200
2017-03-28T11:28:21.543Z,190
2017-03-28T11:29:21.619Z,190
2017-03-28T11:30:21.054Z,190
2017-03-28T11:31:21.396Z,185
2017-03-28T11:32:21.149Z,185
2017-03-28T11:33:21.820Z,185
2017-03-28T11:34:22.161Z,180
2017-03-28T11:35:21.917Z,180
2017-03-28T11:36:21.368Z,180
2017-03-28T11:37:21.714Z,175
2017-03-28T11:38:22.077Z,175
2017-03-28T11:39:22.125Z,180
2017-03-28T11:40:21.561Z,175
2017-03-28T11:41:21.925Z,170
2017-03-28T11:42:22.002Z,170
2017-03-28T11:43:22.629Z,170
2017-03-28T11:44:21.774Z,170
2017-03-28T11:45:22.142Z,165
2017-03-28T11:46:21.870Z,165
2017-03-28T11:47:22.229Z,165
2017-03-28T11:48:22.281Z,170
2017-03-28T11:49:22.327Z,165
2017-03-28T11:50:22.375Z,165
2017-03-28T11:51:22.422Z,165
2017-03-28T11:52:22.470Z,165
2017-03-28T11:53:22.837Z,160
2017-03-28T11:54:22.569Z,160
2017-03-28T11:55:22.317Z,160
2017-03-28T11:56:22.661Z,160
2017-03-28T11:57:22.420Z,160
2017-03-28T11:58:22.457Z,155
2017-03-28T11:59:22.515Z,155
2017-03-28T12:00:22.549Z,155
2017-03-28T12:01:22.609Z,155
2017-03-28T12:02:22.950Z,155
2017-03-28T12:03:23.010Z,150
2017-03-28T12:04:23.650Z,150
2017-03-28T12:05:23.095Z,150
2017-03-28T12:06:23.146Z,150
2017-03-28T12:07:23.215Z,145
2017-03-28T12:08:23.238Z,145
2017-03-28T12:09:23.281Z,145
2017-03-28T12:10:23.032Z,145
2017-03-28T12:11:23.071Z,145
2017-03-28T12:12:23.118Z,140
2017-03-28T12:13:23.769Z,140
2017-03-28T12:14:23.526Z,140
2017-03-28T12:15:23.661Z,140
2017-03-28T12:16:23.614Z,140
2017-03-28T12:17:23.652Z,140
2017-03-28T12:18:23.392Z,135
2017-03-28T12:19:23.748Z,135
2017-03-28T12:20:23.801Z,135
2017-03-28T12:21:23.839Z,135
2017-03-28T12:22:23.880Z,135
2017-03-28T12:23:24.701Z,135
2017-03-28T12:24:24.066Z,130
2017-03-28T12:25:23.731Z,130
2017-03-28T12:26:24.074Z,130
2017-03-28T12:27:23.811Z,130
2017-03-28T12:28:23.862Z,130
2017-03-28T12:29:23.903Z,130
2017-03-28T12:30:24.544Z,125
2017-03-28T12:31:24.371Z,125
2017-03-28T12:32:24.337Z,125
2017-03-28T12:33:24.084Z,125
2017-03-28T12:34:24.157Z,125
2017-03-28T12:35:24.496Z,125
2017-03-28T12:36:24.520Z,120
2017-03-28T12:37:24.271Z,120
2017-03-28T12:38:24.308Z,120
2017-03-28T12:39:24.658Z,120
2017-03-28T12:40:24.401Z,120
2017-03-28T12:41:24.562Z,120
2017-03-28T12:42:24.795Z,120
2017-03-28T12:43:24.534Z,120
2017-03-28T12:44:25.189Z,120
2017-03-28T12:45:24.638Z,120
2017-03-28T12:46:24.962Z,120
2017-03-28T12:47:24.718Z,120
2017-03-28T12:48:24.760Z,120
2017-03-28T12:49:25.112Z,115
2017-03-28T12:50:25.145Z,115
2017-03-28T12:51:24.900Z,115
2017-03-28T12:52:25.230Z,115
2017-03-28T12:53:24.985Z,115
2017-03-28T12:54:25.020Z,115
2017-03-28T12:55:25.073Z,115
2017-03-28T12:56:25.111Z,115
2017-03-28T12:57:25.180Z,115
2017-03-28T12:58:25.501Z,115
2017-03-28T12:59:25.251Z,115
2017-03-28T13:00:25.341Z,115
2017-03-28T13:01:25.866Z,115
2017-03-28T13:02:25.382Z,115
2017-03-28T13:03:25.731Z,115
2017-03-28T13:04:25.771Z,115
2017-03-28T13:05:25.812Z,115
2017-03-28T13:06:25.555Z,115
2017-03-28T13:07:25.606Z,115
2017-03-28T13:08:25.638Z,115
2017-03-28T13:09:26.301Z,115
2017-03-28T13:10:25.737Z,115
2017-03-28T13:11:26.111Z,115
2017-03-28T13:12:26.130Z,115
2017-03-28T13:13:25.868Z,115
2017-03-28T13:14:26.131Z,115
2017-03-28T13:15:26.262Z,115
2017-03-28T13:16:26.302Z,115
2017-03-28T13:17:26.347Z,115
2017-03-28T13:18:26.080Z,115
2017-03-28T13:19:26.133Z,115
2017-03-28T13:20:26.483Z,115
2017-03-28T13:21:26.213Z,115
2017-03-28T13:22:26.570Z,115
2017-03-28T13:23:26.605Z,115
2017-03-28T13:24:26.348Z,115
2017-03-28T13:25:26.387Z,115
2017-03-28T13:26:26.739Z,115
2017-03-28T13:27:26.792Z,115
2017-03-28T13:28:26.521Z,115
2017-03-28T13:29:26.873Z,115
2017-03-28T13:30:26.911Z,115
2017-03-28T13:31:26.668Z,110
2017-03-28T13:32:26.692Z,110
2017-03-28T13:33:26.745Z,110
2017-03-28T13:34:27.396Z,110
2017-03-28T13:35:26.828Z,110
2017-03-28T13:36:27.175Z,110
2017-03-28T13:37:26.931Z,110
2017-03-28T13:38:27.251Z,110
2017-03-28T13:39:27.005Z,110
2017-03-28T13:40:27.047Z,110
2017-03-28T13:41:27.700Z,110
2017-03-28T13:42:27.438Z,110
2017-03-28T13:43:27.186Z,110
2017-03-28T13:44:27.228Z,110
2017-03-28T13:45:27.271Z,110
2017-03-28T13:46:27.614Z,110
2017-03-28T13:47:27.347Z,110
2017-03-28T13:48:27.996Z,110
2017-03-28T13:49:27.764Z,110
2017-03-28T13:50:27.479Z,110
2017-03-28T13:51:27.835Z,110
2017-03-28T13:52:27.876Z,110
2017-03-28T13:53:27.912Z,110
2017-03-28T13:54:27.655Z,110
2017-03-28T13:55:28.002Z,110
2017-03-28T13:56:27.744Z,105
2017-03-28T13:57:27.782Z,105
2017-03-28T13:58:27.821Z,105
2017-03-28T13:59:27.870Z,105
2017-03-28T14:00:28.217Z,105
2017-03-28T14:01:27.965Z,105